sensor_id;sensor_type;location;lat;lon;timestamp;P1;durP1;ratioP1;P2;durP2;ratioP2
18411;SDS011;27097;51.738;19.472;2023-04-19T00:02:19;17.33;;;9.07;;
18411;SDS011;27097;51.738;19.472;2023-04-19T00:04:46;14.15;;;8.85;;
18411;SDS011;27097;51.738;19.472;2023-04-19T00:07:13;12.82;;;8.25;;
18411;SDS011;27097;51.738;19.472;2023-04-19T00:09:40;14.07;;;8.73;;
18411;SDS011;27097;51.738;19.472;2023-04-19T00:12:07;13.50;;;8.38;;
18411;SDS011;27097;51.738;19.472;2023-04-19T00:14:34;13.80;;;8.98;;
18411;SDS011;27097;51.738;19.472;2023-04-19T00:17:02;15.90;;;9.02;;
18411;SDS011;27097;51.738;19.472;2023-04-19T00:19:29;14.30;;;8.23;;
18411;SDS011;27097;51.738;19.472;2023-04-19T00:21:56;15.05;;;8.52;;
18411;SDS011;27097;51.738;19.472;2023-04-19T00:24:23;15.88;;;8.63;;
18411;SDS011;27097;51.738;19.472;2023-04-19T00:26:50;14.75;;;8.13;;
18411;SDS011;27097;51.738;19.472;2023-04-19T00:29:16;13.45;;;8.77;;
18411;SDS011;27097;51.738;19.472;2023-04-19T00:31:43;16.33;;;8.10;;
18411;SDS011;27097;51.738;19.472;2023-04-19T00:34:11;14.20;;;8.77;;
18411;SDS011;27097;51.738;19.472;2023-04-19T00:36:38;12.27;;;7.97;;
18411;SDS011;27097;51.738;19.472;2023-04-19T00:39:05;15.20;;;8.73;;
18411;SDS011;27097;51.738;19.472;2023-04-19T00:41:32;14.95;;;8.38;;
18411;SDS011;27097;51.738;19.472;2023-04-19T00:43:59;14.15;;;7.80;;
18411;SDS011;27097;51.738;19.472;2023-04-19T00:46:26;13.27;;;7.57;;
18411;SDS011;27097;51.738;19.472;2023-04-19T00:48:53;11.93;;;7.65;;
18411;SDS011;27097;51.738;19.472;2023-04-19T00:51:22;15.43;;;7.88;;
18411;SDS011;27097;51.738;19.472;2023-04-19T00:53:48;13.00;;;7.93;;
18411;SDS011;27097;51.738;19.472;2023-04-19T00:56:16;12.57;;;7.47;;
18411;SDS011;27097;51.738;19.472;2023-04-19T00:58:44;11.85;;;7.15;;
18411;SDS011;27097;51.738;19.472;2023-04-19T01:01:11;13.25;;;7.70;;
18411;SDS011;27097;51.738;19.472;2023-04-19T01:03:38;12.77;;;7.90;;
18411;SDS011;27097;51.738;19.472;2023-04-19T01:06:05;13.27;;;7.53;;
18411;SDS011;27097;51.738;19.472;2023-04-19T01:08:34;15.18;;;7.80;;
18411;SDS011;27097;51.738;19.472;2023-04-19T01:11:01;12.52;;;7.28;;
18411;SDS011;27097;51.738;19.472;2023-04-19T01:13:28;13.10;;;7.10;;
18411;SDS011;27097;51.738;19.472;2023-04-19T01:15:54;11.40;;;7.80;;
18411;SDS011;27097;51.738;19.472;2023-04-19T01:18:22;12.52;;;8.05;;
18411;SDS011;27097;51.738;19.472;2023-04-19T01:20:49;12.27;;;7.18;;
18411;SDS011;27097;51.738;19.472;2023-04-19T01:23:18;10.57;;;6.75;;
18411;SDS011;27097;51.738;19.472;2023-04-19T01:25:44;10.65;;;7.25;;
18411;SDS011;27097;51.738;19.472;2023-04-19T01:28:11;9.20;;;7.20;;
18411;SDS011;27097;51.738;19.472;2023-04-19T01:30:38;15.38;;;7.20;;
18411;SDS011;27097;51.738;19.472;2023-04-19T01:33:05;11.20;;;7.43;;
18411;SDS011;27097;51.738;19.472;2023-04-19T01:35:32;13.70;;;7.43;;
18411;SDS011;27097;51.738;19.472;2023-04-19T01:37:59;10.07;;;6.85;;
18411;SDS011;27097;51.738;19.472;2023-04-19T01:40:27;12.27;;;7.53;;
18411;SDS011;27097;51.738;19.472;2023-04-19T01:42:54;10.35;;;7.00;;
18411;SDS011;27097;51.738;19.472;2023-04-19T01:45:21;9.80;;;6.63;;
18411;SDS011;27097;51.738;19.472;2023-04-19T01:47:47;10.00;;;7.20;;
18411;SDS011;27097;51.738;19.472;2023-04-19T01:50:14;12.48;;;7.03;;
18411;SDS011;27097;51.738;19.472;2023-04-19T01:52:41;12.98;;;6.70;;
18411;SDS011;27097;51.738;19.472;2023-04-19T01:55:08;10.75;;;7.28;;
18411;SDS011;27097;51.738;19.472;2023-04-19T01:57:36;12.20;;;7.05;;
18411;SDS011;27097;51.738;19.472;2023-04-19T02:00:03;13.35;;;7.15;;
18411;SDS011;27097;51.738;19.472;2023-04-19T02:02:31;11.23;;;6.88;;
18411;SDS011;27097;51.738;19.472;2023-04-19T02:04:58;8.10;;;6.20;;
18411;SDS011;27097;51.738;19.472;2023-04-19T02:07:24;10.18;;;6.80;;
18411;SDS011;27097;51.738;19.472;2023-04-19T02:09:51;9.68;;;6.95;;
18411;SDS011;27097;51.738;19.472;2023-04-19T02:12:18;10.23;;;6.53;;
18411;SDS011;27097;51.738;19.472;2023-04-19T02:14:46;11.70;;;6.75;;
18411;SDS011;27097;51.738;19.472;2023-04-19T02:17:13;11.90;;;6.88;;
18411;SDS011;27097;51.738;19.472;2023-04-19T02:19:40;9.27;;;6.45;;
18411;SDS011;27097;51.738;19.472;2023-04-19T02:22:07;9.02;;;6.55;;
18411;SDS011;27097;51.738;19.472;2023-04-19T02:24:33;10.90;;;7.10;;
18411;SDS011;27097;51.738;19.472;2023-04-19T02:27:00;11.02;;;6.65;;
18411;SDS011;27097;51.738;19.472;2023-04-19T02:29:27;9.98;;;7.13;;
18411;SDS011;27097;51.738;19.472;2023-04-19T02:31:55;8.93;;;6.50;;
18411;SDS011;27097;51.738;19.472;2023-04-19T02:34:22;10.13;;;6.28;;
18411;SDS011;27097;51.738;19.472;2023-04-19T02:36:49;10.45;;;6.88;;
18411;SDS011;27097;51.738;19.472;2023-04-19T02:39:16;9.88;;;6.10;;
18411;SDS011;27097;51.738;19.472;2023-04-19T02:41:43;10.98;;;6.18;;
18411;SDS011;27097;51.738;19.472;2023-04-19T02:44:09;8.70;;;6.30;;
18411;SDS011;27097;51.738;19.472;2023-04-19T02:46:37;10.10;;;6.20;;
18411;SDS011;27097;51.738;19.472;2023-04-19T02:49:05;9.77;;;6.45;;
18411;SDS011;27097;51.738;19.472;2023-04-19T02:51:33;10.02;;;6.45;;
18411;SDS011;27097;51.738;19.472;2023-04-19T02:54:00;9.13;;;6.65;;
18411;SDS011;27097;51.738;19.472;2023-04-19T02:56:27;10.13;;;6.43;;
18411;SDS011;27097;51.738;19.472;2023-04-19T02:58:53;8.43;;;6.25;;
18411;SDS011;27097;51.738;19.472;2023-04-19T03:01:21;8.15;;;6.28;;
18411;SDS011;27097;51.738;19.472;2023-04-19T03:03:48;8.10;;;6.65;;
18411;SDS011;27097;51.738;19.472;2023-04-19T03:06:16;9.60;;;6.28;;
18411;SDS011;27097;51.738;19.472;2023-04-19T03:08:43;10.85;;;6.90;;
18411;SDS011;27097;51.738;19.472;2023-04-19T03:11:10;11.30;;;6.60;;
18411;SDS011;27097;51.738;19.472;2023-04-19T03:13:37;11.05;;;6.60;;
18411;SDS011;27097;51.738;19.472;2023-04-19T03:16:04;7.97;;;6.00;;
18411;SDS011;27097;51.738;19.472;2023-04-19T03:18:32;10.18;;;6.10;;
18411;SDS011;27097;51.738;19.472;2023-04-19T03:20:59;8.15;;;6.03;;
18411;SDS011;27097;51.738;19.472;2023-04-19T03:23:28;8.23;;;6.57;;
18411;SDS011;27097;51.738;19.472;2023-04-19T03:25:55;8.80;;;5.82;;
18411;SDS011;27097;51.738;19.472;2023-04-19T03:28:22;9.13;;;6.28;;
18411;SDS011;27097;51.738;19.472;2023-04-19T03:30:49;9.52;;;6.60;;
18411;SDS011;27097;51.738;19.472;2023-04-19T03:33:16;9.25;;;6.40;;
18411;SDS011;27097;51.738;19.472;2023-04-19T03:35:45;9.02;;;6.32;;
18411;SDS011;27097;51.738;19.472;2023-04-19T03:38:11;9.27;;;6.00;;
18411;SDS011;27097;51.738;19.472;2023-04-19T03:40:40;8.63;;;6.07;;
18411;SDS011;27097;51.738;19.472;2023-04-19T03:43:07;9.70;;;6.28;;
18411;SDS011;27097;51.738;19.472;2023-04-19T03:45:34;7.50;;;5.72;;
18411;SDS011;27097;51.738;19.472;2023-04-19T03:48:01;9.38;;;5.80;;
18411;SDS011;27097;51.738;19.472;2023-04-19T03:50:28;9.00;;;6.30;;
18411;SDS011;27097;51.738;19.472;2023-04-19T03:52:54;8.70;;;6.13;;
18411;SDS011;27097;51.738;19.472;2023-04-19T03:55:21;8.65;;;6.15;;
18411;SDS011;27097;51.738;19.472;2023-04-19T03:57:50;9.75;;;6.18;;
18411;SDS011;27097;51.738;19.472;2023-04-19T04:00:17;8.75;;;6.13;;
18411;SDS011;27097;51.738;19.472;2023-04-19T04:02:43;7.95;;;6.03;;
18411;SDS011;27097;51.738;19.472;2023-04-19T04:05:10;10.05;;;6.28;;
18411;SDS011;27097;51.738;19.472;2023-04-19T04:07:37;8.82;;;6.28;;
18411;SDS011;27097;51.738;19.472;2023-04-19T04:10:04;10.90;;;5.95;;
18411;SDS011;27097;51.738;19.472;2023-04-19T04:12:32;9.02;;;5.80;;
18411;SDS011;27097;51.738;19.472;2023-04-19T04:15:01;9.90;;;5.88;;
18411;SDS011;27097;51.738;19.472;2023-04-19T04:17:29;7.90;;;5.60;;
18411;SDS011;27097;51.738;19.472;2023-04-19T04:19:55;8.63;;;5.80;;
18411;SDS011;27097;51.738;19.472;2023-04-19T04:22:22;7.97;;;5.80;;
18411;SDS011;27097;51.738;19.472;2023-04-19T04:24:49;9.45;;;5.90;;
18411;SDS011;27097;51.738;19.472;2023-04-19T04:27:17;7.82;;;5.50;;
18411;SDS011;27097;51.738;19.472;2023-04-19T04:29:45;8.10;;;5.35;;
18411;SDS011;27097;51.738;19.472;2023-04-19T04:32:14;7.78;;;5.70;;
18411;SDS011;27097;51.738;19.472;2023-04-19T04:34:42;8.95;;;5.72;;
18411;SDS011;27097;51.738;19.472;2023-04-19T04:37:09;8.25;;;5.95;;
18411;SDS011;27097;51.738;19.472;2023-04-19T04:39:36;9.00;;;5.75;;
18411;SDS011;27097;51.738;19.472;2023-04-19T04:42:04;6.90;;;5.25;;
18411;SDS011;27097;51.738;19.472;2023-04-19T04:44:32;8.57;;;5.90;;
18411;SDS011;27097;51.738;19.472;2023-04-19T04:46:59;7.45;;;5.30;;
18411;SDS011;27097;51.738;19.472;2023-04-19T04:49:28;8.27;;;5.72;;
18411;SDS011;27097;51.738;19.472;2023-04-19T04:51:54;7.13;;;5.40;;
18411;SDS011;27097;51.738;19.472;2023-04-19T04:54:26;7.13;;;5.47;;
18411;SDS011;27097;51.738;19.472;2023-04-19T04:56:57;11.05;;;6.13;;
18411;SDS011;27097;51.738;19.472;2023-04-19T04:59:24;6.90;;;5.60;;
18411;SDS011;27097;51.738;19.472;2023-04-19T05:01:51;10.98;;;5.75;;
18411;SDS011;27097;51.738;19.472;2023-04-19T05:04:18;7.50;;;5.28;;
18411;SDS011;27097;51.738;19.472;2023-04-19T05:06:46;10.63;;;5.72;;
18411;SDS011;27097;51.738;19.472;2023-04-19T05:09:13;7.10;;;5.35;;
18411;SDS011;27097;51.738;19.472;2023-04-19T05:11:40;11.10;;;5.90;;
18411;SDS011;27097;51.738;19.472;2023-04-19T05:14:07;11.68;;;5.82;;
18411;SDS011;27097;51.738;19.472;2023-04-19T05:16:34;10.13;;;5.85;;
18411;SDS011;27097;51.738;19.472;2023-04-19T05:19:01;9.52;;;5.50;;
18411;SDS011;27097;51.738;19.472;2023-04-19T05:21:28;8.35;;;5.47;;
18411;SDS011;27097;51.738;19.472;2023-04-19T05:23:56;9.13;;;5.93;;
18411;SDS011;27097;51.738;19.472;2023-04-19T05:26:23;7.70;;;5.13;;
18411;SDS011;27097;51.738;19.472;2023-04-19T05:28:51;11.57;;;5.20;;
18411;SDS011;27097;51.738;19.472;2023-04-19T05:31:18;8.60;;;5.80;;
18411;SDS011;27097;51.738;19.472;2023-04-19T05:33:45;8.00;;;5.53;;
18411;SDS011;27097;51.738;19.472;2023-04-19T05:36:12;8.80;;;5.50;;
18411;SDS011;27097;51.738;19.472;2023-04-19T05:38:39;10.73;;;5.15;;
18411;SDS011;27097;51.738;19.472;2023-04-19T05:41:07;6.93;;;5.13;;
18411;SDS011;27097;51.738;19.472;2023-04-19T05:43:34;10.48;;;5.53;;
18411;SDS011;27097;51.738;19.472;2023-04-19T05:46:00;9.43;;;5.13;;
18411;SDS011;27097;51.738;19.472;2023-04-19T05:48:27;7.13;;;5.10;;
18411;SDS011;27097;51.738;19.472;2023-04-19T05:50:54;7.15;;;5.20;;
18411;SDS011;27097;51.738;19.472;2023-04-19T05:53:22;9.85;;;5.30;;
18411;SDS011;27097;51.738;19.472;2023-04-19T05:55:48;10.85;;;5.88;;
18411;SDS011;27097;51.738;19.472;2023-04-19T05:58:17;14.60;;;6.00;;
18411;SDS011;27097;51.738;19.472;2023-04-19T06:00:44;12.38;;;5.47;;
18411;SDS011;27097;51.738;19.472;2023-04-19T06:03:12;18.45;;;5.13;;
18411;SDS011;27097;51.738;19.472;2023-04-19T06:05:39;13.48;;;5.60;;
18411;SDS011;27097;51.738;19.472;2023-04-19T06:08:07;10.88;;;5.30;;
18411;SDS011;27097;51.738;19.472;2023-04-19T06:10:34;10.90;;;5.25;;
18411;SDS011;27097;51.738;19.472;2023-04-19T06:13:02;14.95;;;5.60;;
18411;SDS011;27097;51.738;19.472;2023-04-19T06:15:30;13.05;;;5.45;;
18411;SDS011;27097;51.738;19.472;2023-04-19T06:17:57;10.32;;;5.63;;
18411;SDS011;27097;51.738;19.472;2023-04-19T06:20:24;17.83;;;6.13;;
18411;SDS011;27097;51.738;19.472;2023-04-19T06:22:51;10.82;;;5.55;;
18411;SDS011;27097;51.738;19.472;2023-04-19T06:25:18;18.77;;;5.47;;
18411;SDS011;27097;51.738;19.472;2023-04-19T06:27:45;16.92;;;5.47;;
18411;SDS011;27097;51.738;19.472;2023-04-19T06:30:15;13.80;;;5.75;;
18411;SDS011;27097;51.738;19.472;2023-04-19T06:32:55;14.50;;;5.07;;
18411;SDS011;27097;51.738;19.472;2023-04-19T06:35:22;10.07;;;4.60;;
18411;SDS011;27097;51.738;19.472;2023-04-19T06:37:49;11.50;;;4.63;;
18411;SDS011;27097;51.738;19.472;2023-04-19T06:40:16;10.77;;;5.28;;
18411;SDS011;27097;51.738;19.472;2023-04-19T06:42:43;13.43;;;5.00;;
18411;SDS011;27097;51.738;19.472;2023-04-19T06:45:10;15.65;;;5.25;;
18411;SDS011;27097;51.738;19.472;2023-04-19T06:47:39;11.20;;;5.55;;
18411;SDS011;27097;51.738;19.472;2023-04-19T06:50:07;11.65;;;5.25;;
18411;SDS011;27097;51.738;19.472;2023-04-19T06:52:35;13.35;;;4.97;;
18411;SDS011;27097;51.738;19.472;2023-04-19T06:55:03;9.32;;;4.68;;
18411;SDS011;27097;51.738;19.472;2023-04-19T06:57:31;13.52;;;5.05;;
18411;SDS011;27097;51.738;19.472;2023-04-19T06:59:58;9.93;;;4.45;;
18411;SDS011;27097;51.738;19.472;2023-04-19T07:02:25;10.07;;;4.82;;
18411;SDS011;27097;51.738;19.472;2023-04-19T07:04:52;12.75;;;4.35;;
18411;SDS011;27097;51.738;19.472;2023-04-19T07:07:20;8.02;;;4.55;;
18411;SDS011;27097;51.738;19.472;2023-04-19T07:09:47;6.70;;;4.30;;
18411;SDS011;27097;51.738;19.472;2023-04-19T07:12:14;6.47;;;4.68;;
18411;SDS011;27097;51.738;19.472;2023-04-19T07:14:41;13.13;;;5.00;;
18411;SDS011;27097;51.738;19.472;2023-04-19T07:17:08;13.13;;;4.85;;
18411;SDS011;27097;51.738;19.472;2023-04-19T07:19:37;14.25;;;5.25;;
18411;SDS011;27097;51.738;19.472;2023-04-19T07:22:03;16.83;;;5.07;;
18411;SDS011;27097;51.738;19.472;2023-04-19T07:24:32;7.82;;;5.18;;
18411;SDS011;27097;51.738;19.472;2023-04-19T07:26:59;7.32;;;4.80;;
18411;SDS011;27097;51.738;19.472;2023-04-19T07:29:26;10.98;;;5.65;;
18411;SDS011;27097;51.738;19.472;2023-04-19T07:31:53;13.55;;;5.30;;
18411;SDS011;27097;51.738;19.472;2023-04-19T07:34:20;12.68;;;5.05;;
18411;SDS011;27097;51.738;19.472;2023-04-19T07:36:47;14.10;;;5.25;;
18411;SDS011;27097;51.738;19.472;2023-04-19T07:39:14;13.65;;;5.13;;
18411;SDS011;27097;51.738;19.472;2023-04-19T07:41:42;11.65;;;5.22;;
18411;SDS011;27097;51.738;19.472;2023-04-19T07:44:10;10.77;;;5.20;;
18411;SDS011;27097;51.738;19.472;2023-04-19T07:46:37;8.02;;;4.93;;
18411;SDS011;27097;51.738;19.472;2023-04-19T07:49:04;13.55;;;5.03;;
18411;SDS011;27097;51.738;19.472;2023-04-19T07:51:31;8.23;;;4.45;;
18411;SDS011;27097;51.738;19.472;2023-04-19T07:53:58;12.60;;;5.00;;
18411;SDS011;27097;51.738;19.472;2023-04-19T07:56:25;10.82;;;4.90;;
18411;SDS011;27097;51.738;19.472;2023-04-19T07:58:53;12.05;;;5.07;;
18411;SDS011;27097;51.738;19.472;2023-04-19T08:01:20;10.50;;;5.05;;
18411;SDS011;27097;51.738;19.472;2023-04-19T08:03:47;6.68;;;4.70;;
18411;SDS011;27097;51.738;19.472;2023-04-19T08:06:14;9.15;;;5.15;;
18411;SDS011;27097;51.738;19.472;2023-04-19T08:08:41;11.85;;;5.15;;
18411;SDS011;27097;51.738;19.472;2023-04-19T08:11:08;9.38;;;5.10;;
18411;SDS011;27097;51.738;19.472;2023-04-19T08:13:35;8.80;;;4.88;;
18411;SDS011;27097;51.738;19.472;2023-04-19T08:16:03;8.65;;;4.78;;
18411;SDS011;27097;51.738;19.472;2023-04-19T08:21:03;10.70;;;4.47;;
18411;SDS011;27097;51.738;19.472;2023-04-19T08:23:30;10.60;;;4.53;;
18411;SDS011;27097;51.738;19.472;2023-04-19T08:25:57;8.95;;;4.35;;
18411;SDS011;27097;51.738;19.472;2023-04-19T08:28:31;6.45;;;4.30;;
18411;SDS011;27097;51.738;19.472;2023-04-19T08:30:58;5.80;;;4.35;;
18411;SDS011;27097;51.738;19.472;2023-04-19T08:33:32;9.77;;;4.57;;
18411;SDS011;27097;51.738;19.472;2023-04-19T08:36:00;8.52;;;4.28;;
18411;SDS011;27097;51.738;19.472;2023-04-19T08:38:27;7.95;;;4.50;;
18411;SDS011;27097;51.738;19.472;2023-04-19T08:40:54;8.07;;;4.55;;
18411;SDS011;27097;51.738;19.472;2023-04-19T08:43:21;9.38;;;4.47;;
18411;SDS011;27097;51.738;19.472;2023-04-19T08:45:52;5.55;;;4.45;;
18411;SDS011;27097;51.738;19.472;2023-04-19T08:48:20;6.18;;;4.47;;
18411;SDS011;27097;51.738;19.472;2023-04-19T08:50:50;9.52;;;4.97;;
18411;SDS011;27097;51.738;19.472;2023-04-19T08:53:21;9.27;;;4.72;;
18411;SDS011;27097;51.738;19.472;2023-04-19T08:55:48;7.13;;;4.85;;
18411;SDS011;27097;51.738;19.472;2023-04-19T08:58:18;6.63;;;4.30;;
18411;SDS011;27097;51.738;19.472;2023-04-19T09:00:45;10.05;;;4.95;;
18411;SDS011;27097;51.738;19.472;2023-04-19T09:03:11;8.38;;;4.30;;
18411;SDS011;27097;51.738;19.472;2023-04-19T09:05:38;11.85;;;5.00;;
18411;SDS011;27097;51.738;19.472;2023-04-19T09:08:23;9.52;;;5.22;;
18411;SDS011;27097;51.738;19.472;2023-04-19T09:10:52;10.23;;;5.60;;
18411;SDS011;27097;51.738;19.472;2023-04-19T09:13:19;8.50;;;4.75;;
18411;SDS011;27097;51.738;19.472;2023-04-19T09:15:47;10.27;;;4.72;;
18411;SDS011;27097;51.738;19.472;2023-04-19T09:18:13;8.27;;;4.40;;
18411;SDS011;27097;51.738;19.472;2023-04-19T09:20:41;9.13;;;4.38;;
18411;SDS011;27097;51.738;19.472;2023-04-19T09:23:09;6.95;;;4.30;;
18411;SDS011;27097;51.738;19.472;2023-04-19T09:25:38;18.02;;;4.72;;
18411;SDS011;27097;51.738;19.472;2023-04-19T09:28:09;11.85;;;4.35;;
18411;SDS011;27097;51.738;19.472;2023-04-19T09:30:37;27.63;;;5.55;;
18411;SDS011;27097;51.738;19.472;2023-04-19T09:33:04;18.55;;;5.22;;
18411;SDS011;27097;51.738;19.472;2023-04-19T09:35:41;11.32;;;4.68;;
18411;SDS011;27097;51.738;19.472;2023-04-19T09:38:08;8.70;;;4.78;;
18411;SDS011;27097;51.738;19.472;2023-04-19T09:40:36;10.38;;;5.30;;
18411;SDS011;27097;51.738;19.472;2023-04-19T09:43:05;13.13;;;5.05;;
18411;SDS011;27097;51.738;19.472;2023-04-19T09:45:39;10.23;;;4.97;;
18411;SDS011;27097;51.738;19.472;2023-04-19T09:48:07;9.93;;;4.78;;
18411;SDS011;27097;51.738;19.472;2023-04-19T09:50:35;15.10;;;5.00;;
18411;SDS011;27097;51.738;19.472;2023-04-19T09:53:15;11.35;;;4.97;;
18411;SDS011;27097;51.738;19.472;2023-04-19T09:55:44;9.05;;;5.00;;
18411;SDS011;27097;51.738;19.472;2023-04-19T09:58:12;15.38;;;4.85;;
18411;SDS011;27097;51.738;19.472;2023-04-19T10:00:39;14.60;;;5.05;;
18411;SDS011;27097;51.738;19.472;2023-04-19T10:03:09;11.73;;;4.90;;
18411;SDS011;27097;51.738;19.472;2023-04-19T10:05:36;10.50;;;4.95;;
18411;SDS011;27097;51.738;19.472;2023-04-19T10:08:06;10.63;;;5.10;;
18411;SDS011;27097;51.738;19.472;2023-04-19T10:10:33;9.95;;;4.70;;
18411;SDS011;27097;51.738;19.472;2023-04-19T10:13:02;11.55;;;4.63;;
18411;SDS011;27097;51.738;19.472;2023-04-19T10:15:33;8.85;;;4.60;;
18411;SDS011;27097;51.738;19.472;2023-04-19T10:18:01;9.13;;;4.28;;
18411;SDS011;27097;51.738;19.472;2023-04-19T10:20:29;6.70;;;4.35;;
18411;SDS011;27097;51.738;19.472;2023-04-19T10:23:00;16.52;;;6.57;;
18411;SDS011;27097;51.738;19.472;2023-04-19T10:25:28;10.80;;;7.45;;
18411;SDS011;27097;51.738;19.472;2023-04-19T10:27:56;12.68;;;6.78;;
18411;SDS011;27097;51.738;19.472;2023-04-19T10:30:24;11.52;;;7.32;;
18411;SDS011;27097;51.738;19.472;2023-04-19T10:32:52;13.90;;;8.38;;
18411;SDS011;27097;51.738;19.472;2023-04-19T10:35:21;13.30;;;8.10;;
18411;SDS011;27097;51.738;19.472;2023-04-19T10:38:01;12.30;;;8.57;;
18411;SDS011;27097;51.738;19.472;2023-04-19T10:43:26;12.65;;;8.75;;
18411;SDS011;27097;51.738;19.472;2023-04-19T10:45:56;11.13;;;7.20;;
18411;SDS011;27097;51.738;19.472;2023-04-19T10:48:31;11.13;;;7.80;;
18411;SDS011;27097;51.738;19.472;2023-04-19T10:51:12;11.02;;;7.15;;
18411;SDS011;27097;51.738;19.472;2023-04-19T10:53:47;10.25;;;7.45;;
18411;SDS011;27097;51.738;19.472;2023-04-19T10:56:19;13.57;;;7.50;;
18411;SDS011;27097;51.738;19.472;2023-04-19T11:01:48;11.05;;;6.80;;
18411;SDS011;27097;51.738;19.472;2023-04-19T11:04:17;11.55;;;6.63;;
18411;SDS011;27097;51.738;19.472;2023-04-19T11:07:01;7.75;;;6.25;;
18411;SDS011;27097;51.738;19.472;2023-04-19T11:09:30;10.88;;;6.80;;
18411;SDS011;27097;51.738;19.472;2023-04-19T11:11:59;12.38;;;7.05;;
18411;SDS011;27097;51.738;19.472;2023-04-19T11:14:29;10.55;;;6.50;;
18411;SDS011;27097;51.738;19.472;2023-04-19T11:16:59;11.25;;;6.68;;
18411;SDS011;27097;51.738;19.472;2023-04-19T11:19:27;12.32;;;7.20;;
18411;SDS011;27097;51.738;19.472;2023-04-19T11:21:57;9.98;;;6.38;;
18411;SDS011;27097;51.738;19.472;2023-04-19T11:24:25;11.40;;;6.70;;
18411;SDS011;27097;51.738;19.472;2023-04-19T11:26:52;9.23;;;6.53;;
18411;SDS011;27097;51.738;19.472;2023-04-19T11:29:21;8.25;;;6.40;;
18411;SDS011;27097;51.738;19.472;2023-04-19T11:31:48;9.80;;;6.93;;
18411;SDS011;27097;51.738;19.472;2023-04-19T11:34:16;10.95;;;6.53;;
18411;SDS011;27097;51.738;19.472;2023-04-19T11:36:48;11.55;;;7.50;;
18411;SDS011;27097;51.738;19.472;2023-04-19T11:39:16;9.27;;;6.40;;
18411;SDS011;27097;51.738;19.472;2023-04-19T11:41:43;9.02;;;6.63;;
18411;SDS011;27097;51.738;19.472;2023-04-19T11:44:14;9.77;;;7.30;;
18411;SDS011;27097;51.738;19.472;2023-04-19T11:46:48;10.07;;;7.25;;
18411;SDS011;27097;51.738;19.472;2023-04-19T11:49:26;13.57;;;7.60;;
18411;SDS011;27097;51.738;19.472;2023-04-19T11:52:01;12.85;;;7.28;;
18411;SDS011;27097;51.738;19.472;2023-04-19T11:54:31;11.30;;;7.40;;
18411;SDS011;27097;51.738;19.472;2023-04-19T11:56:59;13.57;;;7.75;;
18411;SDS011;27097;51.738;19.472;2023-04-19T11:59:27;9.55;;;6.90;;
18411;SDS011;27097;51.738;19.472;2023-04-19T12:01:54;11.85;;;7.35;;
18411;SDS011;27097;51.738;19.472;2023-04-19T12:04:21;14.10;;;7.10;;
18411;SDS011;27097;51.738;19.472;2023-04-19T12:06:56;9.95;;;7.18;;
18411;SDS011;27097;51.738;19.472;2023-04-19T12:09:24;11.10;;;7.00;;
18411;SDS011;27097;51.738;19.472;2023-04-19T12:11:52;10.00;;;7.05;;
18411;SDS011;27097;51.738;19.472;2023-04-19T12:14:19;11.55;;;7.28;;
18411;SDS011;27097;51.738;19.472;2023-04-19T12:19:33;11.93;;;6.65;;
18411;SDS011;27097;51.738;19.472;2023-04-19T12:22:10;10.40;;;7.18;;
18411;SDS011;27097;51.738;19.472;2023-04-19T12:24:38;8.07;;;6.32;;
18411;SDS011;27097;51.738;19.472;2023-04-19T12:27:06;9.77;;;7.18;;
18411;SDS011;27097;51.738;19.472;2023-04-19T12:29:33;10.30;;;6.53;;
18411;SDS011;27097;51.738;19.472;2023-04-19T12:32:00;9.10;;;7.07;;
18411;SDS011;27097;51.738;19.472;2023-04-19T12:34:27;10.10;;;7.03;;
18411;SDS011;27097;51.738;19.472;2023-04-19T12:36:54;11.38;;;7.07;;
18411;SDS011;27097;51.738;19.472;2023-04-19T12:39:23;9.52;;;6.80;;
18411;SDS011;27097;51.738;19.472;2023-04-19T12:41:50;9.40;;;7.22;;
18411;SDS011;27097;51.738;19.472;2023-04-19T12:44:17;11.73;;;7.55;;
18411;SDS011;27097;51.738;19.472;2023-04-19T12:46:44;10.23;;;7.00;;
18411;SDS011;27097;51.738;19.472;2023-04-19T12:49:11;10.13;;;7.47;;
18411;SDS011;27097;51.738;19.472;2023-04-19T12:51:38;9.35;;;6.43;;
18411;SDS011;27097;51.738;19.472;2023-04-19T12:54:06;9.18;;;6.93;;
18411;SDS011;27097;51.738;19.472;2023-04-19T12:56:34;11.25;;;6.93;;
18411;SDS011;27097;51.738;19.472;2023-04-19T12:59:01;12.02;;;6.80;;
18411;SDS011;27097;51.738;19.472;2023-04-19T13:01:28;8.40;;;6.70;;
18411;SDS011;27097;51.738;19.472;2023-04-19T13:03:55;11.23;;;7.18;;
18411;SDS011;27097;51.738;19.472;2023-04-19T13:06:22;13.88;;;6.85;;
18411;SDS011;27097;51.738;19.472;2023-04-19T13:08:50;12.73;;;6.43;;
18411;SDS011;27097;51.738;19.472;2023-04-19T13:11:16;10.52;;;6.47;;
18411;SDS011;27097;51.738;19.472;2023-04-19T13:13:48;10.98;;;6.50;;
18411;SDS011;27097;51.738;19.472;2023-04-19T13:16:16;23.00;;;12.82;;
18411;SDS011;27097;51.738;19.472;2023-04-19T13:18:43;13.88;;;8.07;;
18411;SDS011;27097;51.738;19.472;2023-04-19T13:21:10;13.82;;;7.68;;
18411;SDS011;27097;51.738;19.472;2023-04-19T13:23:37;11.05;;;7.40;;
18411;SDS011;27097;51.738;19.472;2023-04-19T13:26:04;11.50;;;7.05;;
18411;SDS011;27097;51.738;19.472;2023-04-19T13:28:32;10.95;;;7.28;;
18411;SDS011;27097;51.738;19.472;2023-04-19T13:31:02;11.23;;;7.38;;
18411;SDS011;27097;51.738;19.472;2023-04-19T13:33:30;19.60;;;7.10;;
18411;SDS011;27097;51.738;19.472;2023-04-19T13:35:57;19.05;;;7.72;;
18411;SDS011;27097;51.738;19.472;2023-04-19T13:38:23;13.05;;;7.35;;
18411;SDS011;27097;51.738;19.472;2023-04-19T13:40:50;16.17;;;7.88;;
18411;SDS011;27097;51.738;19.472;2023-04-19T13:43:17;11.10;;;7.15;;
18411;SDS011;27097;51.738;19.472;2023-04-19T13:45:44;11.20;;;7.05;;
18411;SDS011;27097;51.738;19.472;2023-04-19T13:48:13;13.60;;;7.47;;
18411;SDS011;27097;51.738;19.472;2023-04-19T13:50:40;16.85;;;8.30;;
18411;SDS011;27097;51.738;19.472;2023-04-19T13:53:06;12.30;;;8.27;;
18411;SDS011;27097;51.738;19.472;2023-04-19T13:55:33;13.68;;;7.28;;
18411;SDS011;27097;51.738;19.472;2023-04-19T13:58:00;16.40;;;8.57;;
18411;SDS011;27097;51.738;19.472;2023-04-19T14:00:27;12.88;;;7.40;;
18411;SDS011;27097;51.738;19.472;2023-04-19T14:02:54;15.68;;;7.65;;
18411;SDS011;27097;51.738;19.472;2023-04-19T14:05:23;15.88;;;7.72;;
18411;SDS011;27097;51.738;19.472;2023-04-19T14:07:50;14.27;;;7.30;;
18411;SDS011;27097;51.738;19.472;2023-04-19T14:10:17;14.20;;;7.82;;
18411;SDS011;27097;51.738;19.472;2023-04-19T14:12:45;14.50;;;7.65;;
18411;SDS011;27097;51.738;19.472;2023-04-19T14:15:13;12.60;;;7.40;;
18411;SDS011;27097;51.738;19.472;2023-04-19T14:17:40;15.05;;;7.00;;
18411;SDS011;27097;51.738;19.472;2023-04-19T14:20:07;13.65;;;6.88;;
18411;SDS011;27097;51.738;19.472;2023-04-19T14:22:36;11.55;;;7.18;;
18411;SDS011;27097;51.738;19.472;2023-04-19T14:25:04;12.88;;;7.40;;
18411;SDS011;27097;51.738;19.472;2023-04-19T14:27:31;11.32;;;7.28;;
18411;SDS011;27097;51.738;19.472;2023-04-19T14:29:58;18.85;;;7.25;;
18411;SDS011;27097;51.738;19.472;2023-04-19T14:32:25;11.82;;;7.10;;
18411;SDS011;27097;51.738;19.472;2023-04-19T14:34:53;8.85;;;6.47;;
18411;SDS011;27097;51.738;19.472;2023-04-19T14:37:20;10.63;;;7.00;;
18411;SDS011;27097;51.738;19.472;2023-04-19T14:39:49;11.15;;;7.18;;
18411;SDS011;27097;51.738;19.472;2023-04-19T14:42:16;9.82;;;6.88;;